INFORMACIÓN METAR y TAF
METAR FOR LEST
ADDS - METARS form results

(2039 UTC 26 May 2022)
Data provider http://aviationweather.gov/metar/data/
 
METAR text: LEST 262030Z 06007KT 360V100 CAVOK 19/08 Q1025 NOSIG
Conditions at: LEST (SANTIAGO/LABACOL, ES) observed 2030 UTC 26 May 2022
Temperature: 19.0°C (66°F)
Dewpoint: 8.0°C (46°F) [RH = 49%]
Pressure (altimeter): 30.27 inches Hg (1025.0 mb)
Winds: from the ENE (60 degrees) at 8 MPH (7 knots; 3.6 m/s)
Visibility: 6 or more miles (10+ km)
Ceiling: ceiling and visibility are OK
Clouds: unknown
Weather: no significant weather observed at this time

METAR text: LEST 262000Z 05006KT 010V100 CAVOK 20/09 Q1024 NOSIG
Conditions at: LEST (SANTIAGO/LABACOL, ES) observed 2000 UTC 26 May 2022
Temperature: 20.0°C (68°F)
Dewpoint: 9.0°C (48°F) [RH = 49%]
Pressure (altimeter): 30.24 inches Hg (1024.0 mb)
Winds: from the NE (50 degrees) at 7 MPH (6 knots; 3.1 m/s)
Visibility: 6 or more miles (10+ km)
Ceiling: ceiling and visibility are OK
Clouds: unknown
Weather: no significant weather observed at this time

Forecast for: LEST (SANTIAGO/LABACOL, ES)
Text: TAF LEST 261700Z 2618/2718 04008KT CAVOK TX28/2714Z TN10/2705Z
Forecast period: 1800 UTC 26 May 2022 to 1800 UTC 27 May 2022
Forecast type: FROM: standard forecast or significant change
Winds: from the NE (40 degrees) at 9 MPH (8 knots; 4.1 m/s)
Visibility: 6 or more miles (10+ km)
Ceiling: unknown
Clouds: missing
Weather: no significant weather forecast for this period
Text: PROB30
Forecast period: 0300 to 0700 UTC 27 May 2022
Forecast type: TEMPORARY: The following changes expected for less than half the time period
Visibility: 1.86 miles (2.99 km)
Ceiling: unknown
Clouds: missing
Weather: BR BCFG  (mist, patches of fog)

 MAPA DE AEROPUERTO

 INFORMACIÓN DE PISTA
Pista 17 Longitud 10499 ft Ancho 148 ft
Elevación 1170 ft Umbral desplazado 394 ft Rumbo de pista 166
Pista 35 Longitud 10499 ft Ancho 148 ft
Elevación 1196 ft Umbral desplazado 0 ft Rumbo de pista 346

 FRECUANCIAS DEL AEROPUERTO
Tipo APP Nombre APP Frecuencia 118.2 MHZ
Tipo GND Nombre GND Frecuencia 121.7 MHZ
Tipo TWR Nombre TWR Frecuencia 118.75 MHZ

 RADIO AYUDAS DEL AEROPUERTO
Tipo NDB Nombre Santiago Frecuencia 417 KHZ
Tipo VOR-DME Nombre Santiago Frecuencia 116400 KHZ



Powered by Virtual Airlines Manager [v2.6.2]